createdAt,value
2022-10-11T00:00:25.051Z,99292.03
2022-10-11T00:03:26.914Z,99301.09
2022-10-11T00:06:28.768Z,99296.91
2022-10-11T00:09:30.770Z,99299.06
2022-10-11T00:12:33.220Z,99298.75
2022-10-11T00:15:35.245Z,99295.56
2022-10-11T00:18:37.956Z,99296.91
2022-10-11T00:21:39.822Z,99306.25
2022-10-11T00:24:41.683Z,99298.22
2022-10-11T00:27:43.508Z,99312.97
2022-10-11T00:30:45.277Z,99307.09
2022-10-11T00:33:47.508Z,99298.91
2022-10-11T00:36:49.544Z,99308.63
2022-10-11T00:39:51.375Z,99308.59
2022-10-11T00:42:53.105Z,99310.44
2022-10-11T00:45:57.822Z,99297.84
2022-10-11T00:49:05.534Z,99310.59
2022-10-11T00:52:31.937Z,99316.75
2022-10-11T00:55:40.905Z,99309.72
2022-10-11T00:58:43.644Z,99313.91
2022-10-11T01:01:45.769Z,99314.03
2022-10-11T01:04:47.681Z,99308.84
2022-10-11T01:07:50.871Z,99320.88
2022-10-11T01:10:52.710Z,99307.16
2022-10-11T01:14:03.786Z,99319.28
2022-10-11T01:17:13.567Z,99326.50
2022-10-11T01:20:27.396Z,99333.69
2022-10-11T01:23:44.432Z,99325.19
2022-10-11T01:27:13.732Z,99333.53
2022-10-11T01:30:23.263Z,99330.19
2022-10-11T01:33:41.390Z,99328.16
2022-10-11T01:36:52.108Z,99331.50
2022-10-11T01:40:05.308Z,99334.75
2022-10-11T01:43:07.148Z,99339.16
2022-10-11T01:46:10.347Z,99337.16
2022-10-11T01:49:12.226Z,99339.84
2022-10-11T01:52:14.340Z,99343.00
2022-10-11T01:55:36.285Z,99342.31
2022-10-11T01:59:06.494Z,99344.72
2022-10-11T02:02:39.147Z,99340.91
2022-10-11T02:05:55.779Z,99336.75
2022-10-11T02:09:11.980Z,99346.25
2022-10-11T02:12:20.779Z,99343.06
2022-10-11T02:15:25.352Z,99340.22
2022-10-11T02:18:33.468Z,99339.69
2022-10-11T02:21:40.414Z,99341.91
2022-10-11T02:24:46.240Z,99343.72
2022-10-11T02:27:50.496Z,99338.84
2022-10-11T02:30:53.734Z,99349.75
2022-10-11T02:34:19.419Z,99357.72
2022-10-11T02:37:24.751Z,99350.91
2022-10-11T02:40:32.678Z,99367.13
2022-10-11T02:43:41.661Z,99366.28
2022-10-11T02:46:45.431Z,99357.41
2022-10-11T02:49:47.316Z,99356.06
2022-10-11T02:52:49.216Z,99357.31
2022-10-11T02:55:53.108Z,99357.38
2022-10-11T02:58:54.830Z,99360.19
2022-10-11T03:01:56.631Z,99365.38
2022-10-11T03:04:58.469Z,99357.72
2022-10-11T03:08:00.235Z,99357.25
2022-10-11T03:11:02.042Z,99357.63
2022-10-11T03:14:03.867Z,99359.09
2022-10-11T03:17:31.176Z,99367.28
2022-10-11T03:20:27.530Z,99357.94
2022-10-11T03:23:29.353Z,99368.75
2022-10-11T03:26:31.111Z,99365.38
2022-10-11T03:29:32.882Z,99363.41
2022-10-11T03:32:34.966Z,99366.22
2022-10-11T03:35:36.684Z,99359.56
2022-10-11T03:38:39.590Z,99362.19
2022-10-11T03:41:41.233Z,99365.75
2022-10-11T03:44:42.997Z,99367.50
2022-10-11T03:47:44.792Z,99369.78
2022-10-11T03:50:46.512Z,99368.78
2022-10-11T03:53:48.310Z,99363.44
2022-10-11T03:56:50.125Z,99371.63
2022-10-11T03:59:51.947Z,99378.97
2022-10-11T04:02:53.786Z,99380.66
2022-10-11T04:05:55.560Z,99374.41
2022-10-11T04:08:57.368Z,99375.59
2022-10-11T04:11:59.219Z,99374.66
2022-10-11T04:15:01.052Z,99376.13
2022-10-11T04:18:02.878Z,99384.84
2022-10-11T04:21:04.950Z,99384.47
2022-10-11T04:24:06.931Z,99383.53
2022-10-11T04:27:08.692Z,99395.06
2022-10-11T04:30:11.329Z,99395.00
2022-10-11T04:33:13.136Z,99400.19
2022-10-11T04:36:15.023Z,99401.88
2022-10-11T04:39:16.902Z,99404.03
2022-10-11T04:42:18.648Z,99403.50
2022-10-11T04:45:21.617Z,99400.28
2022-10-11T04:48:23.380Z,99403.34
2022-10-11T04:51:25.660Z,99414.34
2022-10-11T04:54:27.453Z,99410.69
2022-10-11T04:57:29.227Z,99410.69
2022-10-11T05:00:31.094Z,99414.72
2022-10-11T05:03:33.412Z,99417.63
2022-10-11T05:06:35.277Z,99416.50
2022-10-11T05:09:37.147Z,99426.97
2022-10-11T05:12:38.985Z,99421.22
2022-10-11T05:15:40.702Z,99421.75
2022-10-11T05:18:42.508Z,99419.59
2022-10-11T05:21:44.410Z,99425.03
2022-10-11T05:24:46.192Z,99429.03
2022-10-11T05:27:49.011Z,99431.84
2022-10-11T05:30:50.883Z,99437.41
2022-10-11T05:33:52.615Z,99440.47
2022-10-11T08:07:16.415Z,99448.31
2022-10-11T08:10:18.361Z,99447.78
2022-10-11T08:13:20.400Z,99451.94
2022-10-11T08:16:22.275Z,99441.91
2022-10-11T08:19:24.103Z,99452.88
2022-10-11T08:22:26.041Z,99454.13
2022-10-11T08:25:28.004Z,99465.41
2022-10-11T08:28:29.927Z,99469.75
2022-10-11T08:31:34.379Z,99468.75
2022-10-11T08:34:36.268Z,99465.41
2022-10-11T08:37:38.135Z,99464.75
2022-10-11T08:40:47.348Z,99460.19
2022-10-11T08:44:05.952Z,99466.19
2022-10-11T08:47:28.828Z,99469.03
2022-10-11T08:50:31.027Z,99464.50
2022-10-11T08:54:12.927Z,99456.75
2022-10-11T08:57:19.544Z,99459.00
2022-10-11T09:00:23.633Z,99470.66
2022-10-11T09:03:37.065Z,99465.28
2022-10-11T09:07:07.569Z,99467.28
2022-10-11T09:10:43.837Z,99462.50
2022-10-11T09:14:12.500Z,99452.09
2022-10-11T09:17:52.155Z,99457.47
2022-10-11T09:21:28.357Z,99457.63
2022-10-11T09:24:47.769Z,99455.56
2022-10-11T09:28:15.360Z,99463.69
2022-10-11T09:31:22.628Z,99461.88
2022-10-11T09:34:32.547Z,99456.31
2022-10-11T09:37:52.865Z,99465.22
2022-10-11T09:41:23.591Z,99462.84
2022-10-11T09:44:33.609Z,99464.88
2022-10-11T09:47:36.149Z,99464.59
2022-10-11T09:50:39.878Z,99456.63
2022-10-11T09:54:00.664Z,99456.81
2022-10-11T09:57:06.083Z,99455.44
2022-10-11T10:00:23.713Z,99459.63
2022-10-11T10:03:31.958Z,99459.97
2022-10-11T10:06:37.333Z,99466.88
2022-10-11T10:09:39.535Z,99460.59
2022-10-11T10:12:41.551Z,99459.13
2022-10-11T10:15:48.468Z,99461.34
2022-10-11T10:18:59.787Z,99460.63
2022-10-11T10:22:01.756Z,99459.97
2022-10-11T10:25:09.449Z,99457.63
2022-10-11T10:28:24.318Z,99457.53
2022-10-11T10:31:30.920Z,99455.88
2022-10-11T10:34:38.968Z,99457.44
2022-10-11T10:38:02.123Z,99457.19
2022-10-11T10:41:09.859Z,99452.72
2022-10-11T10:44:11.815Z,99457.25
2022-10-11T10:47:43.258Z,99452.53
2022-10-11T10:51:26.540Z,99449.47
2022-10-11T10:54:51.219Z,99441.81
2022-10-11T10:58:09.728Z,99440.94
2022-10-11T11:01:24.526Z,99451.56
2022-10-11T11:04:33.086Z,99443.00
2022-10-11T11:07:49.646Z,99444.97
2022-10-11T11:10:56.020Z,99445.69
2022-10-11T11:14:19.804Z,99442.91
2022-10-11T11:17:30.647Z,99442.63
2022-10-11T11:20:41.214Z,99446.66
2022-10-11T11:23:55.206Z,99437.41
2022-10-11T11:27:15.505Z,99444.59
2022-10-11T11:30:49.415Z,99456.13
2022-10-11T11:34:03.163Z,99453.34
2022-10-11T11:37:14.562Z,99448.97
2022-10-11T11:40:29.157Z,99451.16
2022-10-11T11:44:10.066Z,99460.03
2022-10-11T11:47:31.454Z,99451.81
2022-10-11T11:50:43.864Z,99468.69
2022-10-11T11:54:24.589Z,99461.88
2022-10-11T11:57:53.380Z,99459.94
2022-10-11T12:01:31.595Z,99452.41
2022-10-11T12:04:38.839Z,99452.59
2022-10-11T12:07:52.167Z,99451.31
2022-10-11T12:10:59.252Z,99463.25
2022-10-11T12:14:03.775Z,99466.97
2022-10-11T12:17:12.904Z,99466.53
2022-10-11T12:20:41.398Z,99465.16
2022-10-11T12:23:46.547Z,99464.00
2022-10-11T12:26:50.243Z,99464.41
2022-10-11T12:29:52.004Z,99465.91
2022-10-11T12:33:06.770Z,99466.28
2022-10-11T12:36:47.181Z,99466.72
2022-10-11T12:39:57.384Z,99470.91
2022-10-11T12:43:36.443Z,99468.13
2022-10-11T12:47:03.876Z,99468.41
2022-10-11T12:50:17.986Z,99472.88
2022-10-11T12:53:22.381Z,99473.16
2022-10-11T12:56:38.044Z,99467.66
2022-10-11T12:59:46.812Z,99470.06
2022-10-11T13:02:49.714Z,99470.81
2022-10-11T13:05:53.709Z,99474.91
2022-10-11T13:09:04.254Z,99479.94
2022-10-11T13:12:18.408Z,99474.53
2022-10-11T13:15:22.706Z,99480.69
2022-10-11T13:18:26.207Z,99475.38
2022-10-11T13:21:36.290Z,99477.69
2022-10-11T13:24:40.124Z,99478.06
2022-10-11T13:27:42.501Z,99477.16
2022-10-11T13:30:50.321Z,99490.63
2022-10-11T13:33:59.140Z,99488.78
2022-10-11T13:37:01.032Z,99489.41
2022-10-11T13:40:06.808Z,99492.13
2022-10-11T13:43:08.877Z,99499.56
2022-10-11T13:46:19.757Z,99494.34
2022-10-11T13:49:29.193Z,99506.44
2022-10-11T13:52:31.156Z,99512.47
2022-10-11T13:55:47.858Z,99499.47
2022-10-11T13:58:49.947Z,99507.91
2022-10-11T14:02:00.177Z,99510.63
2022-10-11T14:05:02.055Z,99502.16
2022-10-11T14:08:08.323Z,99505.97
2022-10-11T14:11:12.309Z,99506.44
2022-10-11T14:14:32.556Z,99511.81
2022-10-11T14:17:39.493Z,99520.75
2022-10-11T14:20:41.833Z,99517.47
2022-10-11T14:23:44.509Z,99520.56
2022-10-11T14:26:48.761Z,99528.75
2022-10-11T14:30:19.866Z,99527.06
2022-10-11T14:33:12.950Z,99521.19
2022-10-11T14:36:14.823Z,99521.56
2022-10-11T14:39:22.416Z,99523.13
2022-10-11T14:42:24.231Z,99535.06
2022-10-11T14:45:26.153Z,99541.16
2022-10-11T14:48:50.391Z,99535.72
2022-10-11T14:51:50.566Z,99539.19
2022-10-11T14:54:52.361Z,99544.47
2022-10-11T14:57:54.375Z,99548.72
2022-10-11T15:00:56.215Z,99553.56
2022-10-11T15:03:58.016Z,99561.22
2022-10-11T15:07:00.367Z,99560.44
2022-10-11T15:10:17.155Z,99573.38
2022-10-11T15:13:19.602Z,99570.06
2022-10-11T15:16:22.142Z,99571.31
2022-10-11T15:19:25.559Z,99573.53
2022-10-11T15:22:27.862Z,99579.44
2022-10-11T15:25:30.484Z,99585.00
2022-10-11T15:28:33.205Z,99598.63
2022-10-11T15:31:34.867Z,99585.09
2022-10-11T15:34:36.613Z,99590.63
2022-10-11T15:37:38.399Z,99592.97
2022-10-11T15:40:40.695Z,99583.25
2022-10-11T15:43:47.108Z,99596.53
2022-10-11T15:46:48.876Z,99596.88
2022-10-11T15:49:50.623Z,99599.72
2022-10-11T15:52:52.425Z,99602.09
2022-10-11T15:55:56.194Z,99594.72
2022-10-11T15:58:58.470Z,99608.50
2022-10-11T16:02:00.270Z,99607.16
2022-10-11T16:05:02.081Z,99614.56
2022-10-11T16:08:03.990Z,99613.72
2022-10-11T16:11:07.959Z,99613.41
2022-10-11T16:14:09.801Z,99610.72
2022-10-11T16:17:11.696Z,99619.44
2022-10-11T16:20:14.412Z,99625.16
2022-10-11T16:23:16.226Z,99628.69
2022-10-11T16:26:18.077Z,99626.69
2022-10-11T16:29:19.897Z,99629.72
2022-10-11T16:32:22.906Z,99628.38
2022-10-11T16:35:27.883Z,99631.06
2022-10-11T16:38:31.938Z,99631.69
2022-10-11T16:41:35.091Z,99633.38
2022-10-11T16:44:39.492Z,99636.22
2022-10-11T17:49:33.332Z,99637.53
2022-10-11T17:52:35.116Z,99638.41
2022-10-11T17:55:42.684Z,99635.34
2022-10-11T17:58:45.239Z,99638.97
2022-10-11T18:01:47.804Z,99635.34
2022-10-11T18:04:49.631Z,99639.91
2022-10-11T18:07:55.276Z,99630.22
2022-10-11T18:10:57.073Z,99625.03
2022-10-11T18:13:59.086Z,99631.09
2022-10-11T18:17:00.884Z,99632.44
2022-10-11T18:20:02.939Z,99630.97
2022-10-11T18:23:04.912Z,99638.84
2022-10-11T18:26:15.111Z,99635.81
2022-10-11T18:29:16.829Z,99646.72
2022-10-11T18:32:18.581Z,99644.88
2022-10-11T18:35:20.435Z,99655.47
2022-10-11T18:38:22.242Z,99651.09
2022-10-11T18:41:30.653Z,99651.44
2022-10-11T18:44:32.899Z,99647.06
2022-10-11T18:47:34.679Z,99651.28
2022-10-11T18:50:36.519Z,99647.78
2022-10-11T18:53:38.632Z,99643.25
2022-10-11T18:56:41.515Z,99652.66
2022-10-11T18:59:43.277Z,99654.84
2022-10-11T19:02:45.098Z,99650.13
2022-10-11T19:05:46.939Z,99649.13
2022-10-11T19:08:59.392Z,99650.47
2022-10-11T19:12:01.288Z,99654.16
2022-10-11T19:15:03.298Z,99658.66
2022-10-11T19:18:05.151Z,99657.84
2022-10-11T19:21:12.671Z,99656.16
2022-10-11T19:24:19.129Z,99648.97
2022-10-11T19:27:20.942Z,99656.34
2022-10-11T19:30:24.756Z,99656.50
2022-10-11T19:33:26.512Z,99657.53
2022-10-11T19:36:32.608Z,99658.53
2022-10-11T19:39:37.494Z,99665.56
2022-10-11T19:42:39.321Z,99651.97
2022-10-11T19:45:41.193Z,99649.28
2022-10-11T19:48:46.409Z,99651.13
2022-10-11T19:51:48.207Z,99653.31
2022-10-11T19:54:50.045Z,99653.16
2022-10-11T19:57:51.766Z,99655.50
2022-10-11T20:01:21.298Z,99654.31
2022-10-11T20:04:50.447Z,99660.88
2022-10-11T20:07:45.076Z,99659.00
2022-10-11T20:10:47.553Z,99659.16
2022-10-11T20:13:51.987Z,99657.47
2022-10-11T20:16:53.827Z,99656.97
2022-10-11T20:19:55.695Z,99662.50
2022-10-11T20:22:57.517Z,99654.63
2022-10-11T20:26:08.957Z,99657.94
2022-10-11T20:29:10.735Z,99652.59
2022-10-11T20:32:12.489Z,99663.16
2022-10-11T20:35:14.427Z,99652.69
2022-10-11T20:38:16.240Z,99660.09
2022-10-11T20:41:20.919Z,99656.91
2022-10-11T20:44:22.862Z,99661.06
2022-10-11T20:47:24.786Z,99654.34
2022-10-11T20:50:26.574Z,99661.38
2022-10-11T20:53:29.586Z,99660.31
2022-10-11T20:56:31.861Z,99659.97
2022-10-11T20:59:33.632Z,99660.44
2022-10-11T21:02:35.614Z,99665.25
2022-10-11T21:05:37.430Z,99668.34
2022-10-11T21:08:40.615Z,99667.34
2022-10-11T21:11:42.404Z,99679.16
2022-10-11T21:14:44.597Z,99681.47
2022-10-11T21:17:46.459Z,99679.38
2022-10-11T21:20:48.251Z,99679.31
2022-10-11T21:23:54.021Z,99676.06
2022-10-11T21:27:00.262Z,99674.16
2022-10-11T21:30:02.519Z,99679.28
2022-10-11T21:33:04.254Z,99679.53
2022-10-11T21:36:11.312Z,99682.28
2022-10-11T21:39:13.203Z,99677.53
2022-10-11T21:42:15.051Z,99688.16
2022-10-11T21:45:16.966Z,99691.75
2022-10-11T21:48:18.700Z,99689.38
2022-10-11T21:51:27.236Z,99682.78
2022-10-11T21:54:29.024Z,99686.06
2022-10-11T21:57:30.881Z,99691.22
2022-10-11T22:00:32.621Z,99691.91
2022-10-11T22:03:34.414Z,99695.03
2022-10-11T22:06:37.944Z,99702.50
2022-10-11T22:09:39.784Z,99698.19
2022-10-11T22:12:41.482Z,99697.81
2022-10-11T22:15:43.286Z,99696.00
2022-10-11T22:18:45.069Z,99696.75
2022-10-11T22:21:46.880Z,99696.34
2022-10-11T22:24:48.675Z,99698.06
2022-10-11T22:27:50.424Z,99694.53
2022-10-11T22:30:52.187Z,99703.28
2022-10-11T22:33:55.130Z,99696.13
2022-10-11T22:36:56.779Z,99703.44
2022-10-11T22:39:58.517Z,99706.41
2022-10-11T22:43:00.312Z,99716.25
2022-10-11T22:46:02.134Z,99711.34
2022-10-11T22:49:03.995Z,99719.91
2022-10-11T22:52:05.740Z,99719.91
2022-10-11T22:55:07.921Z,99725.69
2022-10-11T22:58:10.426Z,99718.81
2022-10-11T23:01:15.246Z,99718.38
2022-10-11T23:04:20.914Z,99719.66
2022-10-11T23:07:22.655Z,99713.88
2022-10-11T23:10:24.430Z,99718.81
2022-10-11T23:13:26.217Z,99724.16
2022-10-11T23:16:32.257Z,99723.56
2022-10-11T23:19:34.038Z,99715.84
2022-10-11T23:22:35.977Z,99725.53
2022-10-11T23:25:37.876Z,99718.78
2022-10-11T23:28:40.006Z,99719.22
2022-10-11T23:31:41.796Z,99722.00
2022-10-11T23:34:43.540Z,99727.91
2022-10-11T23:37:45.307Z,99721.72
2022-10-11T23:40:47.080Z,99716.81
2022-10-11T23:43:48.967Z,99718.19
2022-10-11T23:46:50.770Z,99724.22
2022-10-11T23:49:52.881Z,99720.41
2022-10-11T23:52:54.654Z,99725.72
2022-10-11T23:55:56.472Z,99729.91
2022-10-11T23:58:58.393Z,99726.34
